NCAR-RAP Real-Time Weather Data

Output produced by METARs form (14 October 2019  22:41 UTC)
found at http://weather.rap.ucar.edu/surface/
 
KMIA 142153Z 11012KT 10SM SCT035 SCT250 29/21 A3001 RMK AO2 SLP162 T02890206
KMIA 142053Z 10012KT 10SM BKN035 BKN042 BKN250 29/21 A3001 RMK AO2 SLP162 T02890211 55004
KMIA 141953Z 11012KT 10SM SCT028 BKN250 30/21 A3000 RMK AO2 SLP159 T03000211
KMIA 141853Z 11010KT 10SM BKN030 BKN060 BKN250 30/21 A3000 RMK AO2 SLP160 T03000211
KMIA 141753Z 12010KT 10SM SCT030 SCT060 BKN250 30/22 A3002 RMK AO2 SLP166 T03000217 10311 20261 58017
KMIA 141653Z 08007KT 10SM SCT032 BKN060 30/21 A3004 RMK AO2 SLP174 T03000211
KMIA 141553Z 09008KT 10SM BKN030 BKN050 31/21 A3006 RMK AO2 SLP180 T03060211 $
KMIA 141453Z 09009KT 10SM SCT030 SCT038 30/21 A3007 RMK AO2 SLP183 T03000211 51017 $
KMIA 141353Z 09010KT 10SM SCT026 29/21 A3007 RMK AO2 SLP181 T02940211 $
KMIA 141253Z VRB04KT 10SM FEW025 28/22 A3004 RMK AO2 SLP174 T02830222 $
KMIA 141153Z 03003KT 10SM FEW022 26/22 A3002 RMK AO2 SLP166 T02610217 10272 20250 51012 $
KMIA 141053Z 36004KT 10SM FEW028 26/22 A3002 RMK AO2 SLP165 T02610217 $
KMIA 140953Z 00000KT 10SM FEW028 26/21 A3001 RMK AO2 SLP161 T02560211 $
KMIA 140853Z 08004KT 10SM FEW030 26/22 A2999 RMK AO2 SLP154 T02610217 56012 $
KMIA 140753Z 09005KT 10SM FEW025 FEW045 26/22 A2999 RMK AO2 SLP154 T02610217 $
KMIA 140653Z 11007KT 10SM FEW025 FEW045 27/21 A3000 RMK AO2 SLP159 T02670211 $
KMIA 140553Z 09005KT 10SM FEW025 FEW039 27/21 A3002 RMK AO2 SLP166 60000 T02670211 10278 20267 56004 $
KMIA 140453Z 10004KT 10SM FEW025 SCT045 27/22 A3002 RMK AO2 SLP167 MDT CU E T02670217 403110256 $
KMIA 140353Z 11007KT 10SM FEW025 FEW050 27/21 A3003 RMK AO2 SLP168 T02670211 $
KMIA 140253Z 09008KT 10SM SCT025 SCT048 27/22 A3003 RMK AO2 SLP169 60000 T02720217 51012 $
KMIA 140153Z 09010KT 10SM SCT025 28/22 A3002 RMK AO2 SLP167 T02780217 $
KMIA 140053Z 09012KT 10SM FEW029 27/22 A3002 RMK AO2 RAE20 SLP164 P0000 T02720217 $
KMIA 132353Z 09012KT 10SM -RA SCT025 SCT039 28/22 A3000 RMK AO2 RAB52 SLP158 P0000 60000 T02780222 10311 20278 53007 $
KMIA 132253Z 10010KT 10SM SCT024 SCT038 SCT080 28/22 A2998 RMK AO2 SLP153 T02830217 $
KMIA 132153Z 10011KT 10SM SCT024 BKN046 BKN060 BKN250 29/22 A2999 RMK AO2 SLP154 CB DSNT NE MOV W T02890217 $
KMIA 132053Z 09010KT 10SM SCT032 SCT050 SCT250 30/21 A2998 RMK AO2 SLP151 T03000211 56008 $
KMIA 131953Z 10010KT 10SM SCT036 SCT080 SCT250 30/21 A2998 RMK AO2 SLP151 T03000206 $
KMIA 131853Z 12010KT 10SM FEW036 FEW050 SCT080 SCT250 31/21 A2998 RMK AO2 SLP152 CB DSNT N T03110206 $
KMIA 131753Z 11012KT 10SM FEW030 SCT050 BKN080 31/21 A3000 RMK AO2 SLP159 CB DSMT N 60000 T03060206 10311 20261 58009 $
KMIA 131713Z 10011KT 10SM SCT030 BKN050 BKN080 29/20 A3002 RMK AO2 T02940200 $
KMIA 131653Z 09013KT 10SM BKN029 BKN042 BKN080 30/21 A3003 RMK AO2 SLP167 T03000206 $
KMIA 131553Z 10008KT 10SM BKN028 BKN045 29/21 A3003 RMK AO2 RAB27E37 SLP170 P0000 T02890211 $
KMIA 131453Z 12011KT 10SM BKN030 BKN080 29/21 A3003 RMK AO2 SLP168 T02940211 53013 $
KMIA 131353Z 12012KT 10SM SCT030 28/21 A3001 RMK AO2 SLP162 T02830211 $
KMIA 131253Z 10010KT 10SM FEW030 FEW055 28/21 A3000 RMK AO2 SLP157 T02780211 $
KMIA 131153Z 10007KT 10SM FEW027 SCT055 26/21 A2999 RMK AO2 SLP155 60002 70002 T02610211 10278 20256 53009 $
KMIA 131053Z 08006KT 10SM SCT027 BKN060 26/22 A2998 RMK AO2 SLP151 T02610217 $
KMIA 130953Z 07006KT 10SM FEW030 FEW050 SCT070 26/22 A2997 RMK AO2 RAE0858 SLP148 P0000 T02560217 $
KMIA 130853Z 07007KT 7SM -RA BKN030 BKN050 BKN060 26/22 A2996 RMK AO2 RAB11 SLP146 P0002 60002 T02560222 55010 $
KMIA 130753Z 09010KT 10SM FEW030 SCT045 BKN060 27/22 A2996 RMK AO2 SLP144 T02670217 $
KMIA 130653Z 08008KT 10SM FEW030 SCT050 BKN080 27/21 A2997 RMK AO2 RAB23E33 SLP148 P0000 T02670211 $
KMIA 130553Z 09011KT 10SM FEW025 SCT040 BKN075 27/21 A2999 RMK AO2 SLP155 60000 T02720211 10283 20261 58009 $
KMIA 130453Z 07008KT 10SM SCT025 SCT045 BKN065 27/21 A3000 RMK AO2 SLP158 T02720206 402940244 $
KMIA 130353Z 07013G18KT 10SM SCT022 SCT035 BKN075 27/21 A3002 RMK AO2 SLP164 T02720211 $
KMIA 130253Z 08014G19KT 10SM SCT023 SCT036 BKN070 27/22 A3002 RMK AO2 RAB10E26 SLP165 P0000 60000 T02670217 51015 $
KMIA 130153Z 05011KT 10SM SCT029 BKN042 OVC065 27/22 A3000 RMK AO2 RAB30E42 SLP160 P0000 T02670222 $
KMIA 130053Z 05013G19KT 10SM SCT027 SCT040 BKN070 27/21 A2999 RMK AO2 SLP156 T02720211 $
KMIA 122353Z 05009KT 10SM FEW029 SCT034 BKN075 27/21 A2997 RMK AO2 SLP150 60000 T02720206 10289 20272 53009 $
KMIA 122253Z 06011G17KT 10SM FEW029 SCT039 BKN075 BKN250 28/21 A2996 RMK AO2 SLP147 T02780206 $